Time;durP1;ratioP1;P1;durP2;ratioP2;P2;SDS_P1;SDS_P2;PMS_P1;PMS_P2;Temp;Humidity;BMP_temperature;BMP_pressure;BME280_temperature;BME280_humidity;BME280_pressure;Samples;Min_cycle;Max_cycle;Signal;HPM_P1;HPM_P2
2023/09/17 00:01:04;;;;;;;21.63;13.00;;;;;;;19.13;75.99;94436.81;5066281;28;20031;-80
2023/09/17 00:03:30;;;;;;;14.15;10.50;;;;;;;19.11;74.31;94425.59;5082569;28;20365;-80
2023/09/17 00:05:55;;;;;;;13.40;7.70;;;;;;;19.11;72.70;94425.59;5083818;28;20020;-80
2023/09/17 00:08:21;;;;;;;16.17;8.48;;;;;;;19.06;71.33;94426.66;5083674;28;20048;-80
2023/09/17 00:10:46;;;;;;;11.48;6.43;;;;;;;19.05;70.49;94425.09;5083717;28;20091;-80
2023/09/17 00:13:12;;;;;;;11.63;6.82;;;;;;;19.00;70.37;94422.66;5082934;28;20099;-80
2023/09/17 00:15:38;;;;;;;10.40;6.43;;;;;;;18.99;69.93;94412.97;5083708;28;20027;-79
2023/09/17 00:18:04;;;;;;;12.75;7.38;;;;;;;18.98;69.18;94409.50;5083679;28;20021;-80
2023/09/17 00:20:29;;;;;;;11.27;6.28;;;;;;;18.95;68.62;94407.53;5065695;28;20020;-80
2023/09/17 00:22:55;;;;;;;16.73;6.35;;;;;;;18.90;68.55;94404.31;5083363;28;20030;-80
2023/09/17 00:25:20;;;;;;;10.05;5.28;;;;;;;18.87;68.00;94411.19;5083481;28;20021;-80
2023/09/17 00:27:46;;;;;;;9.02;5.45;;;;;;;18.83;67.82;94404.94;5083419;28;20322;-80
2023/09/17 00:30:12;;;;;;;10.18;5.50;;;;;;;18.79;67.70;94391.34;5083170;28;20020;-80
2023/09/17 00:32:37;;;;;;;6.90;4.60;;;;;;;18.77;67.62;94387.41;5083375;28;20192;-80
2023/09/17 00:35:03;;;;;;;9.30;5.30;;;;;;;18.74;67.36;94391.56;5083522;28;20028;-80
2023/09/17 00:37:29;;;;;;;12.07;5.60;;;;;;;18.68;67.87;94397.59;5065465;28;20024;-80
2023/09/17 00:39:54;;;;;;;9.18;5.00;;;;;;;18.69;67.92;94391.88;5083257;28;20373;-80
2023/09/17 00:42:20;;;;;;;9.95;6.10;;;;;;;18.67;67.70;94394.13;5083021;28;20028;-80
2023/09/17 00:44:45;;;;;;;14.73;7.18;;;;;;;18.63;67.95;94391.34;5083193;28;20020;-80
2023/09/17 00:47:11;;;;;;;10.40;6.60;;;;;;;18.60;67.95;94400.16;5083276;28;20028;-80
2023/09/17 00:49:37;;;;;;;13.68;8.40;;;;;;;18.60;68.09;94394.75;5083275;28;20021;-80
2023/09/17 00:52:09;;;;;;;10.20;6.68;;;;;;;18.57;68.44;94398.16;5083050;28;20021;-80
2023/09/17 00:54:34;;;;;;;17.67;9.32;;;;;;;18.59;68.58;94395.88;5083346;28;20319;-80
2023/09/17 00:57:00;;;;;;;13.45;8.20;;;;;;;18.56;68.74;94393.91;5082941;28;20055;-80
2023/09/17 00:59:25;;;;;;;13.52;8.68;;;;;;;18.56;68.98;94399.28;5083149;28;20016;-80
2023/09/17 01:01:52;;;;;;;16.38;8.52;;;;;;;18.52;69.42;94398.44;5083011;28;20087;-80
2023/09/17 01:04:19;;;;;;;15.02;9.65;;;;;;;18.54;69.75;94392.66;5082795;28;20062;-80
2023/09/17 01:06:46;;;;;;;18.02;9.88;;;;;;;18.54;69.81;94395.34;5082869;28;20030;-79
2023/09/17 01:09:12;;;;;;;14.80;11.50;;;;;;;18.53;69.86;94391.09;5065156;28;20031;-80
2023/09/17 01:11:38;;;;;;;20.67;11.07;;;;;;;18.48;70.14;94397.56;5082630;28;20231;-80
2023/09/17 01:14:15;;;;;;;17.05;11.77;;;;;;;18.47;70.63;94393.28;5065035;28;20060;-80
2023/09/17 01:16:45;;;;;;;25.23;12.23;;;;;;;18.48;70.39;94388.66;5082815;28;20021;-79
2023/09/17 01:19:17;;;;;;;17.35;12.15;;;;;;;18.45;71.14;94392.84;5082837;28;20087;-80
2023/09/17 01:22:06;;;;;;;17.58;12.52;;;;;;;18.44;71.04;94392.06;5082695;28;20095;-80
2023/09/17 01:24:48;;;;;;;18.70;13.65;;;;;;;18.49;70.90;94393.72;5083351;28;20021;-80
2023/09/17 01:27:18;;;;;;;19.60;13.25;;;;;;;18.46;70.97;94399.81;5086751;28;20024;-80
2023/09/17 01:29:46;;;;;;;20.25;13.68;;;;;;;18.43;71.22;94393.19;5086733;28;20028;-80
2023/09/17 01:32:12;;;;;;;24.38;13.48;;;;;;;18.47;71.28;94398.69;5086910;28;20017;-80
2023/09/17 01:34:41;;;;;;;26.50;14.85;;;;;;;18.48;71.24;94391.34;5086634;28;20319;-80
2023/09/17 01:37:24;;;;;;;22.10;14.75;;;;;;;18.45;71.12;94385.53;5069021;28;20016;-80
2023/09/17 01:40:06;;;;;;;20.20;14.55;;;;;;;18.48;71.22;94392.16;5068732;28;20047;-80
2023/09/17 01:42:33;;;;;;;23.55;14.93;;;;;;;18.43;71.30;94384.31;5068711;28;20029;-80
2023/09/17 01:45:01;;;;;;;21.70;15.65;;;;;;;18.45;71.67;94390.16;5086508;28;20089;-80
2023/09/17 01:47:28;;;;;;;21.67;15.70;;;;;;;18.47;72.14;94390.59;5086382;28;20363;-80
2023/09/17 01:49:57;;;;;;;22.23;16.40;;;;;;;18.50;72.02;94386.41;5086458;28;20043;-80
2023/09/17 01:52:26;;;;;;;25.33;16.65;;;;;;;18.51;72.11;94396.84;5086403;28;20270;-80
2023/09/17 01:54:52;;;;;;;26.23;16.65;;;;;;;18.53;72.28;94389.19;5068558;28;20051;-80
2023/09/17 01:57:17;;;;;;;24.33;16.58;;;;;;;18.54;72.10;94393.47;5086258;28;20095;-80
2023/09/17 01:59:43;;;;;;;22.75;17.20;;;;;;;18.52;72.49;94390.34;5086240;28;20337;-80
2023/09/17 02:02:08;;;;;;;24.70;17.73;;;;;;;18.50;72.50;94398.00;5068085;28;20100;-80
2023/09/17 02:04:33;;;;;;;27.92;17.42;;;;;;;18.56;72.96;94395.78;5086213;28;20029;-80
2023/09/17 02:06:59;;;;;;;30.58;18.17;;;;;;;18.57;72.76;94400.84;5086062;28;20070;-80
2023/09/17 02:09:24;;;;;;;27.42;17.58;;;;;;;18.57;73.09;94405.47;5086027;28;20133;-80
2023/09/17 02:11:50;;;;;;;29.92;18.83;;;;;;;18.56;73.48;94404.69;5067922;28;20044;-80
2023/09/17 02:14:16;;;;;;;24.63;16.75;;;;;;;18.58;73.34;94391.63;5085899;28;20230;-81
2023/09/17 02:16:42;;;;;;;28.08;19.10;;;;;;;18.56;73.05;94399.28;5085609;28;20036;-80
2023/09/17 02:19:09;;;;;;;24.77;18.05;;;;;;;18.53;73.53;94405.38;5085848;28;20025;-80
2023/09/17 02:21:35;;;;;;;24.45;18.77;;;;;;;18.57;73.73;94408.94;5085930;28;20030;-80
2023/09/17 02:24:00;;;;;;;30.15;19.05;;;;;;;18.58;73.70;94407.03;5067702;28;20051;-81
2023/09/17 02:26:26;;;;;;;27.00;19.30;;;;;;;18.61;73.70;94412.50;5085759;28;20031;-81
2023/09/17 02:28:51;;;;;;;27.90;18.83;;;;;;;18.60;73.80;94405.56;5085609;28;20095;-80
2023/09/17 02:31:17;;;;;;;28.00;18.48;;;;;;;18.52;74.11;94409.22;5085752;28;20020;-80
2023/09/17 02:33:43;;;;;;;32.72;19.35;;;;;;;18.49;74.25;94409.91;5085528;28;20195;-81
2023/09/17 02:36:08;;;;;;;24.80;18.48;;;;;;;18.51;74.76;94423.84;5085110;28;20048;-81
2023/09/17 02:38:34;;;;;;;28.42;19.75;;;;;;;18.49;74.44;94415.31;5084432;28;20062;-80
2023/09/17 02:40:59;;;;;;;27.30;18.75;;;;;;;18.45;74.52;94412.53;5085622;28;20324;-80
2023/09/17 02:43:29;;;;;;;33.67;21.00;;;;;;;18.48;74.73;94418.34;5085147;28;20035;-80
2023/09/17 02:45:55;;;;;;;30.58;21.17;;;;;;;18.47;75.32;94409.47;5085497;28;20032;-80
2023/09/17 02:48:21;;;;;;;27.65;19.35;;;;;;;18.47;75.01;94406.78;5085507;28;20028;-80
2023/09/17 02:50:46;;;;;;;27.17;18.25;;;;;;;18.48;74.63;94397.56;5085290;28;20341;-80
2023/09/17 02:53:12;;;;;;;25.02;17.88;;;;;;;18.47;74.12;94395.22;5085180;28;20095;-80
2023/09/17 02:55:37;;;;;;;27.63;18.13;;;;;;;18.39;73.95;94391.56;5085272;28;20272;-80
2023/09/17 02:58:03;;;;;;;26.00;16.92;;;;;;;18.38;73.91;94388.06;5085289;28;20265;-80
2023/09/17 03:00:35;;;;;;;32.53;17.48;;;;;;;18.35;73.78;94387.97;5085122;28;20028;-80
2023/09/17 03:03:01;;;;;;;26.20;18.27;;;;;;;18.31;74.08;94389.81;5085130;28;20214;-80
2023/09/17 03:05:27;;;;;;;28.75;18.23;;;;;;;18.24;74.53;94383.13;5084794;28;20033;-80
2023/09/17 03:07:53;;;;;;;28.23;19.45;;;;;;;18.21;74.45;94383.78;5084996;28;20030;-80
2023/09/17 03:10:20;;;;;;;26.67;19.27;;;;;;;18.20;74.86;94384.16;5084956;28;20028;-80
2023/09/17 03:12:48;;;;;;;30.48;19.17;;;;;;;18.18;75.05;94379.13;5084832;28;20040;-80
2023/09/17 03:15:13;;;;;;;31.10;19.42;;;;;;;18.18;75.10;94384.50;5066898;28;20016;-80
2023/09/17 03:17:42;;;;;;;33.03;20.02;;;;;;;18.16;75.28;94375.97;5084802;28;20092;-80
2023/09/17 03:20:17;;;;;;;30.00;19.58;;;;;;;18.15;75.62;94377.09;5066829;28;20028;-80
2023/09/17 03:22:45;;;;;;;27.90;19.50;;;;;;;18.15;75.83;94384.41;5066734;28;20036;-80
2023/09/17 03:25:12;;;;;;;34.22;20.63;;;;;;;18.19;75.95;94382.59;5084675;28;20088;-80
2023/09/17 03:27:40;;;;;;;27.80;18.85;;;;;;;18.19;75.90;94386.06;5084743;28;20126;-80
2023/09/17 03:30:06;;;;;;;31.67;20.20;;;;;;;18.17;76.24;94387.53;5084501;28;20020;-81
2023/09/17 03:32:32;;;;;;;38.38;21.10;;;;;;;18.18;76.08;94389.91;5084501;28;20083;-80
2023/09/17 03:34:57;;;;;;;30.05;20.60;;;;;;;18.21;76.47;94393.81;5084523;28;20074;-80
2023/09/17 03:37:23;;;;;;;44.55;21.42;;;;;;;18.18;76.68;94399.91;5084380;28;20207;-80
2023/09/17 03:40:08;;;;;;;33.33;21.25;;;;;;;18.14;77.01;94396.34;5084354;28;20024;-80
2023/09/17 03:42:35;;;;;;;34.20;20.70;;;;;;;18.03;77.02;94388.78;5084422;28;20230;-80
2023/09/17 03:45:01;;;;;;;31.85;22.02;;;;;;;17.97;77.04;94392.06;5084245;28;20016;-80
2023/09/17 03:47:27;;;;;;;35.97;21.02;;;;;;;17.98;77.01;94397.09;5083888;28;20062;-80
2023/09/17 03:49:52;;;;;;;33.22;21.77;;;;;;;18.00;77.38;94391.38;5083434;28;20021;-80
2023/09/17 03:52:18;;;;;;;28.80;19.50;;;;;;;18.00;77.80;94400.25;5084134;28;20091;-80
2023/09/17 03:54:43;;;;;;;33.13;18.45;;;;;;;18.02;78.00;94397.97;5084091;28;20016;-80
2023/09/17 03:57:09;;;;;;;24.48;15.63;;;;;;;18.06;78.04;94403.47;5066196;28;20050;-80
2023/09/17 03:59:34;;;;;;;18.40;14.25;;;;;;;18.00;78.34;94396.78;5084117;28;20020;-80
2023/09/17 04:01:59;;;;;;;22.73;14.52;;;;;;;17.94;78.94;94407.03;5083808;28;20016;-80
2023/09/17 04:04:25;;;;;;;19.52;13.55;;;;;;;17.91;79.41;94406.91;5083817;28;20195;-80
2023/09/17 04:06:50;;;;;;;23.88;14.10;;;;;;;17.84;79.47;94416.41;5083590;28;20113;-80
2023/09/17 04:09:16;;;;;;;26.90;13.07;;;;;;;17.77;79.78;94416.19;5083827;28;20092;-80
2023/09/17 04:11:41;;;;;;;20.65;13.98;;;;;;;17.72;79.98;94416.44;5083626;28;20033;-80
2023/09/17 04:14:07;;;;;;;19.60;13.93;;;;;;;17.66;80.28;94417.81;5083778;28;20353;-81
2023/09/17 04:16:32;;;;;;;23.77;15.38;;;;;;;17.59;80.51;94421.09;5082489;28;20012;-80
2023/09/17 04:18:58;;;;;;;24.60;16.13;;;;;;;17.62;80.26;94422.31;5083548;28;20020;-80
2023/09/17 04:21:23;;;;;;;28.48;14.65;;;;;;;17.67;80.33;94416.69;5083563;28;20052;-80
2023/09/17 04:23:49;;;;;;;22.88;15.98;;;;;;;17.72;80.77;94426.44;5083521;28;20025;-80
2023/09/17 04:26:15;;;;;;;24.67;14.85;;;;;;;17.71;80.74;94422.16;5083268;28;20338;-80
2023/09/17 04:28:41;;;;;;;24.88;14.77;;;;;;;17.77;80.32;94418.88;5083496;28;20020;-80
2023/09/17 04:31:06;;;;;;;29.63;15.57;;;;;;;17.82;80.10;94420.53;5083437;28;20031;-80
2023/09/17 04:33:32;;;;;;;25.80;16.40;;;;;;;17.82;80.48;94420.53;5065469;28;20032;-80
2023/09/17 04:35:58;;;;;;;24.00;15.80;;;;;;;17.84;80.53;94427.19;5083205;28;20032;-81
2023/09/17 04:38:24;;;;;;;24.92;15.18;;;;;;;17.85;80.23;94425.28;5083240;28;20027;-80
2023/09/17 04:40:50;;;;;;;27.15;14.57;;;;;;;17.87;80.32;94433.81;5082140;28;20028;-80
2023/09/17 04:43:15;;;;;;;24.80;15.48;;;;;;;17.85;80.40;94428.00;5083143;28;20246;-80
2023/09/17 04:45:41;;;;;;;23.63;15.65;;;;;;;17.91;80.90;94425.78;5082992;28;20028;-80
2023/09/17 04:48:06;;;;;;;26.05;14.98;;;;;;;17.96;80.45;94436.34;5083169;28;20074;-80
2023/09/17 04:50:33;;;;;;;20.90;15.20;;;;;;;18.00;80.70;94437.22;5083261;28;20030;-81
2023/09/17 04:53:00;;;;;;;27.05;17.73;;;;;;;18.00;81.09;94438.00;5083092;28;20053;-80
2023/09/17 04:55:26;;;;;;;24.30;15.73;;;;;;;17.98;80.64;94434.88;5083112;28;20020;-80
2023/09/17 04:57:52;;;;;;;31.92;18.67;;;;;;;17.93;79.70;94442.41;5083009;28;20338;-80
2023/09/17 05:00:20;;;;;;;27.15;18.48;;;;;;;17.89;79.34;94439.66;5082716;28;20024;-80
2023/09/17 05:02:47;;;;;;;29.02;20.05;;;;;;;17.86;79.80;94439.53;5082814;28;20024;-80
2023/09/17 05:05:13;;;;;;;30.10;20.55;;;;;;;17.90;79.84;94438.50;5082950;28;20024;-80
2023/09/17 05:07:39;;;;;;;33.63;20.30;;;;;;;17.97;79.67;94438.72;5083073;28;20131;-80
2023/09/17 05:10:06;;;;;;;32.63;21.35;;;;;;;18.07;79.35;94437.41;5083082;28;20024;-80
2023/09/17 05:12:31;;;;;;;31.50;19.00;;;;;;;18.13;78.91;94435.22;5082729;28;20045;-80
2023/09/17 05:14:57;;;;;;;34.35;18.88;;;;;;;18.18;78.74;94440.38;5064817;28;20028;-80
2023/09/17 05:17:22;;;;;;;29.85;17.88;;;;;;;18.27;78.40;94435.59;5082824;28;20167;-80
2023/09/17 05:19:47;;;;;;;29.75;17.58;;;;;;;18.33;78.26;94434.19;5082715;28;20398;-80
2023/09/17 05:22:13;;;;;;;35.72;19.50;;;;;;;18.42;78.04;94436.75;5082868;28;20040;-81
2023/09/17 05:24:39;;;;;;;27.95;19.02;;;;;;;18.48;78.25;94423.75;5082759;28;20021;-80
2023/09/17 05:27:04;;;;;;;39.85;23.55;;;;;;;18.55;77.84;94423.94;5082783;28;20254;-80
2023/09/17 05:29:29;;;;;;;38.90;23.85;;;;;;;18.67;77.29;94428.47;5064783;28;20095;-80
2023/09/17 05:31:55;;;;;;;36.75;21.35;;;;;;;18.74;77.13;94426.69;5082776;28;20021;-80
2023/09/17 05:34:20;;;;;;;44.20;23.58;;;;;;;18.84;77.17;94430.78;5082733;28;20023;-80
2023/09/17 05:36:45;;;;;;;40.17;23.60;;;;;;;18.87;77.45;94429.31;5082692;28;20036;-80
2023/09/17 05:39:11;;;;;;;40.60;21.98;;;;;;;18.98;76.43;94425.72;5082776;28;20066;-80
2023/09/17 05:41:37;;;;;;;39.20;22.65;;;;;;;19.02;76.42;94429.28;5082677;28;20311;-80
2023/09/17 05:44:03;;;;;;;40.08;22.98;;;;;;;19.15;76.31;94418.34;5082613;28;20024;-80
2023/09/17 05:46:30;;;;;;;40.05;22.88;;;;;;;19.29;76.39;94415.16;5082384;28;20017;-80
2023/09/17 05:48:56;;;;;;;47.55;23.58;;;;;;;19.40;75.98;94424.28;5082490;28;20017;-80
2023/09/17 05:51:21;;;;;;;34.45;21.75;;;;;;;19.48;75.13;94436.00;5081347;28;20047;-80
2023/09/17 05:53:47;;;;;;;33.63;21.30;;;;;;;19.48;74.23;94431.41;5082452;28;20013;-80
2023/09/17 05:56:12;;;;;;;31.95;20.23;;;;;;;19.53;73.96;94438.44;5082421;28;20106;-80
2023/09/17 05:58:38;;;;;;;32.17;19.70;;;;;;;19.53;73.26;94455.44;5064593;28;20035;-81
2023/09/17 06:01:04;;;;;;;28.95;18.30;;;;;;;19.44;73.96;94447.53;5082399;28;20225;-81
2023/09/17 06:03:30;;;;;;;26.65;18.55;;;;;;;19.37;73.62;94444.69;5082270;28;20311;-80
2023/09/17 06:05:55;;;;;;;29.02;19.48;;;;;;;19.33;74.22;94446.53;5082359;28;20017;-80
2023/09/17 06:08:22;;;;;;;29.90;18.95;;;;;;;19.37;74.29;94455.50;5082396;28;20032;-81
2023/09/17 06:10:48;;;;;;;32.25;19.75;;;;;;;19.29;74.50;94451.06;5082347;28;20047;-81
2023/09/17 06:13:13;;;;;;;30.27;18.77;;;;;;;19.29;74.86;94453.78;5085214;28;20037;-80
2023/09/17 06:15:39;;;;;;;30.00;18.85;;;;;;;19.24;74.47;94459.47;5085895;28;20020;-81
2023/09/17 06:18:04;;;;;;;30.35;19.25;;;;;;;19.23;74.58;94455.19;5084806;28;20044;-80
2023/09/17 06:20:30;;;;;;;33.95;20.75;;;;;;;19.25;74.93;94447.50;5085938;28;20016;-80
2023/09/17 06:22:55;;;;;;;32.90;18.40;;;;;;;19.31;74.84;94448.78;5085919;28;20036;-81
2023/09/17 06:25:23;;;;;;;34.35;20.88;;;;;;;19.41;73.88;94453.63;5085897;28;20032;-80
2023/09/17 06:27:48;;;;;;;34.35;21.58;;;;;;;19.51;74.92;94451.53;5085630;28;20048;-80
2023/09/17 06:30:14;;;;;;;32.25;20.40;;;;;;;19.47;74.93;94458.78;5085772;28;20032;-80
2023/09/17 06:32:40;;;;;;;35.08;20.35;;;;;;;19.59;75.57;94461.34;5085575;28;20016;-80
2023/09/17 06:35:06;;;;;;;38.03;21.13;;;;;;;19.72;75.58;94470.94;5085809;28;20027;-81
2023/09/17 06:37:31;;;;;;;37.65;20.15;;;;;;;19.83;75.32;94469.19;5067717;28;20035;-81
2023/09/17 06:39:57;;;;;;;38.03;19.92;;;;;;;19.81;75.07;94468.00;5085420;28;20039;-80
2023/09/17 06:42:22;;;;;;;39.13;20.50;;;;;;;19.92;74.92;94465.50;5085477;28;20051;-80
2023/09/17 06:44:48;;;;;;;32.35;20.08;;;;;;;20.01;74.67;94468.78;5085433;28;20036;-80
2023/09/17 06:47:14;;;;;;;38.08;20.85;;;;;;;19.94;74.80;94463.22;5085345;28;20215;-81
2023/09/17 06:49:39;;;;;;;34.33;20.05;;;;;;;20.12;74.59;94464.31;5085485;28;20063;-80
2023/09/17 06:52:05;;;;;;;37.08;20.02;;;;;;;20.31;74.08;94465.44;5085542;28;20087;-80
2023/09/17 06:54:30;;;;;;;29.85;18.60;;;;;;;20.45;73.48;94454.84;5085270;28;20131;-80
2023/09/17 06:56:56;;;;;;;33.97;21.75;;;;;;;20.56;73.22;94460.47;5085144;28;20237;-80
2023/09/17 06:59:21;;;;;;;34.92;20.33;;;;;;;20.72;72.75;94460.34;5085129;28;20066;-80
2023/09/17 07:01:47;;;;;;;32.50;18.30;;;;;;;20.86;72.24;94463.25;5085126;28;20032;-80
2023/09/17 07:04:12;;;;;;;32.38;18.17;;;;;;;20.99;71.01;94472.75;5085033;28;20028;-80
2023/09/17 07:06:38;;;;;;;28.13;17.80;;;;;;;21.07;70.23;94467.47;5083845;28;20036;-80
2023/09/17 07:09:04;;;;;;;28.58;17.50;;;;;;;21.11;70.30;94468.28;5085076;28;20024;-80
2023/09/17 07:11:29;;;;;;;31.10;18.38;;;;;;;21.23;69.62;94465.38;5063482;28;20057;-80
2023/09/17 07:13:56;;;;;;;34.15;17.75;;;;;;;21.22;68.46;94466.50;5064843;28;20025;-80
2023/09/17 07:16:24;;;;;;;28.77;17.92;;;;;;;21.21;68.72;94467.66;5063610;28;20037;-80
2023/09/17 07:18:49;;;;;;;28.60;18.35;;;;;;;21.23;68.30;94468.09;5064804;28;20028;-80
2023/09/17 07:21:15;;;;;;;28.75;17.77;;;;;;;21.24;67.91;94472.34;5064711;28;20032;-80
2023/09/17 07:23:41;;;;;;;25.17;16.80;;;;;;;21.27;68.12;94470.81;5064461;28;20032;-81
2023/09/17 07:26:07;;;;;;;31.35;20.27;;;;;;;21.31;68.54;94471.66;5063524;28;20101;-80
2023/09/17 07:28:33;;;;;;;31.70;18.23;;;;;;;21.34;68.11;94471.72;5064642;28;20029;-80
2023/09/17 07:30:58;;;;;;;32.17;19.05;;;;;;;21.34;68.61;94477.13;5064575;28;20020;-80
2023/09/17 07:33:24;;;;;;;28.83;18.48;;;;;;;21.44;68.10;94478.47;5064551;28;20020;-80
2023/09/17 07:35:50;;;;;;;38.03;21.55;;;;;;;21.47;68.14;94490.50;5063345;28;20039;-80
2023/09/17 07:38:15;;;;;;;25.88;16.67;;;;;;;21.50;68.12;94495.19;5064342;28;20259;-80
2023/09/17 07:40:41;;;;;;;32.63;18.77;;;;;;;21.55;68.09;94492.16;5064071;28;20024;-80
2023/09/17 07:43:06;;;;;;;34.60;19.45;;;;;;;21.70;68.01;94504.75;5064302;28;20031;-79
2023/09/17 07:45:33;;;;;;;29.50;18.85;;;;;;;21.80;67.52;94504.13;5064203;28;20033;-80
2023/09/17 07:47:59;;;;;;;29.55;19.10;;;;;;;21.69;67.80;94505.91;5062995;28;20103;-80
2023/09/17 07:50:25;;;;;;;30.83;18.83;;;;;;;21.79;67.52;94502.53;5064119;28;20025;-79
2023/09/17 07:52:50;;;;;;;24.80;17.73;;;;;;;21.86;67.12;94499.16;5064147;28;20021;-79
2023/09/17 07:55:18;;;;;;;30.40;18.33;;;;;;;22.03;66.29;94501.28;5064084;28;20035;-79
2023/09/17 07:57:46;;;;;;;37.67;18.77;;;;;;;22.07;66.49;94504.03;5063916;28;20021;-80
2023/09/17 08:00:15;;;;;;;27.35;18.75;;;;;;;21.91;66.48;94498.03;5063987;28;20044;-79
2023/09/17 08:02:41;;;;;;;28.38;18.70;;;;;;;22.03;66.38;94505.94;5063936;28;20274;-79
2023/09/17 08:05:07;;;;;;;31.13;19.33;;;;;;;22.22;66.11;94494.88;5063864;28;20032;-79
2023/09/17 08:07:32;;;;;;;29.05;18.48;;;;;;;22.39;65.17;94496.28;5063749;28;20046;-79
2023/09/17 08:09:57;;;;;;;30.40;17.63;;;;;;;22.55;64.62;94493.31;5062446;28;20057;-79
2023/09/17 08:12:23;;;;;;;26.27;18.67;;;;;;;22.60;63.92;94492.19;5062344;28;20045;-79
2023/09/17 08:14:48;;;;;;;29.77;19.60;;;;;;;22.66;63.47;94498.06;5062430;28;20036;-80
2023/09/17 08:17:14;;;;;;;30.50;20.10;;;;;;;22.72;63.48;94493.84;5062328;28;20024;-80
2023/09/17 08:19:39;;;;;;;36.00;19.13;;;;;;;22.79;62.90;94502.06;5063515;28;20031;-79
2023/09/17 08:22:05;;;;;;;26.83;18.05;;;;;;;22.71;62.83;94497.72;5062211;28;20028;-79
2023/09/17 08:24:30;;;;;;;31.88;18.05;;;;;;;22.77;62.91;94504.38;5063636;28;20082;-79
2023/09/17 08:26:56;;;;;;;27.52;17.40;;;;;;;22.85;62.49;94495.13;5062406;28;20316;-79
2023/09/17 08:29:22;;;;;;;25.98;18.13;;;;;;;22.93;62.13;94501.41;5063438;28;20025;-79
2023/09/17 08:31:48;;;;;;;25.70;17.73;;;;;;;22.87;61.48;94492.03;5063418;28;20021;-80
2023/09/17 08:34:14;;;;;;;30.33;18.15;;;;;;;22.75;62.60;94501.25;5062860;28;20123;-80
2023/09/17 08:36:40;;;;;;;28.85;18.77;;;;;;;22.87;62.52;94497.47;5063114;28;20197;-80
2023/09/17 08:39:08;;;;;;;27.20;17.27;;;;;;;22.91;61.92;94488.19;5063366;28;20029;-80
2023/09/17 08:41:38;;;;;;;27.58;17.05;;;;;;;22.93;61.75;94490.53;5063340;28;20040;-80
2023/09/17 08:44:05;;;;;;;22.77;15.27;;;;;;;22.90;61.11;94481.19;5063233;28;20032;-80
2023/09/17 08:46:32;;;;;;;29.35;17.25;;;;;;;22.82;61.45;94485.00;5063012;28;20024;-80
2023/09/17 08:48:58;;;;;;;26.80;16.73;;;;;;;22.88;61.58;94488.94;5064860;28;20052;-80
2023/09/17 08:51:25;;;;;;;27.70;17.58;;;;;;;22.83;61.31;94489.28;5062960;28;20055;-80
2023/09/17 08:54:02;;;;;;;29.60;16.90;;;;;;;22.79;61.29;94491.19;5062887;28;20307;-80
2023/09/17 08:56:31;;;;;;;28.55;17.77;;;;;;;22.87;61.95;94492.81;5062948;28;20040;-80
2023/09/17 08:59:01;;;;;;;32.65;17.92;;;;;;;23.01;61.29;94487.50;5062684;28;20025;-80
2023/09/17 09:01:27;;;;;;;31.08;18.90;;;;;;;23.20;60.85;94483.78;5062964;28;20135;-80
2023/09/17 09:03:54;;;;;;;24.65;17.15;;;;;;;23.33;59.56;94486.19;5062809;28;20335;-80
2023/09/17 09:06:21;;;;;;;25.05;16.02;;;;;;;23.27;59.51;94477.59;5062982;28;20020;-80
2023/09/17 09:08:48;;;;;;;24.33;16.10;;;;;;;23.30;58.98;94476.06;5062964;28;20037;-79
2023/09/17 09:11:14;;;;;;;32.70;18.02;;;;;;;23.41;59.36;94479.63;5063767;28;20227;-80
2023/09/17 09:13:41;;;;;;;28.92;17.63;;;;;;;23.50;59.16;94479.28;5082907;28;20039;-79
2023/09/17 09:16:07;;;;;;;28.88;16.92;;;;;;;23.55;59.09;94470.75;5083056;28;20040;-79
2023/09/17 09:18:33;;;;;;;33.58;17.73;;;;;;;23.57;58.73;94484.75;5082903;28;20074;-79
2023/09/17 09:20:58;;;;;;;22.80;15.98;;;;;;;23.70;57.99;94483.25;5082870;28;20020;-80
2023/09/17 09:23:25;;;;;;;25.77;15.90;;;;;;;23.86;57.82;94488.41;5082679;28;20016;-79
2023/09/17 09:25:51;;;;;;;26.15;16.67;;;;;;;23.96;58.09;94482.25;5082632;28;20040;-80
2023/09/17 09:28:16;;;;;;;25.65;16.58;;;;;;;24.07;57.10;94474.09;5082567;28;20195;-80
2023/09/17 09:30:43;;;;;;;27.13;16.63;;;;;;;24.16;56.79;94471.00;5082745;28;20027;-80
2023/09/17 09:33:08;;;;;;;25.67;15.98;;;;;;;24.19;56.75;94475.69;5082479;28;20323;-79
2023/09/17 09:35:34;;;;;;;22.98;14.65;;;;;;;24.23;56.79;94477.25;5082665;28;20021;-80
2023/09/17 09:38:01;;;;;;;23.83;16.05;;;;;;;24.22;56.43;94475.72;5082520;28;20016;-79
2023/09/17 09:40:26;;;;;;;27.52;15.82;;;;;;;24.21;56.84;94474.13;5082500;28;20382;-79
2023/09/17 09:42:52;;;;;;;26.27;15.43;;;;;;;24.17;56.80;94478.78;5082369;28;20101;-80
2023/09/17 09:45:18;;;;;;;24.55;16.33;;;;;;;24.02;57.21;94479.94;5064345;28;20108;-80
2023/09/17 09:47:50;;;;;;;24.67;15.55;;;;;;;24.03;57.26;94489.66;5084903;28;20028;-79
2023/09/17 09:50:21;;;;;;;;;;;;;;;24.03;56.96;94489.66;5086491;28;20031;-80
2023/09/17 09:52:48;;;;;;;24.90;15.55;;;;;;;24.02;57.03;94488.09;5086455;28;20148;-79
2023/09/17 09:55:13;;;;;;;20.65;14.40;;;;;;;23.98;56.71;94476.41;5086269;28;20096;-79
2023/09/17 09:57:39;;;;;;;20.88;15.05;;;;;;;24.08;57.04;94494.72;5086226;28;20020;-80
2023/09/17 10:00:07;;;;;;;23.88;16.13;;;;;;;24.10;56.63;94495.13;5086215;28;20089;-80
2023/09/17 10:02:32;;;;;;;24.30;14.18;;;;;;;24.16;55.85;94484.63;5068257;28;20028;-79
2023/09/17 10:04:59;;;;;;;27.17;15.93;;;;;;;24.09;55.86;94479.94;5086054;28;20267;-79
2023/09/17 10:07:25;;;;;;;21.00;14.52;;;;;;;24.07;56.38;94479.53;5086132;28;20059;-79
2023/09/17 10:09:50;;;;;;;21.23;13.48;;;;;;;24.06;56.23;94474.47;5086131;28;20313;-80
2023/09/17 10:12:16;;;;;;;21.50;14.30;;;;;;;24.07;56.31;94476.06;5085951;28;20044;-80
2023/09/17 10:14:42;;;;;;;23.90;16.48;;;;;;;24.12;56.75;94476.47;5068027;28;20074;-79
2023/09/17 10:17:10;;;;;;;29.50;16.48;;;;;;;24.22;56.86;94481.16;5085863;28;20024;-80
2023/09/17 10:19:36;;;;;;;23.52;15.40;;;;;;;24.28;56.42;94472.59;5085937;28;20096;-80
2023/09/17 10:22:06;;;;;;;24.63;15.43;;;;;;;24.26;55.84;94470.25;5085783;28;20028;-79
2023/09/17 10:24:33;;;;;;;22.63;15.32;;;;;;;24.32;56.28;94478.84;5085673;28;20070;-79
2023/09/17 10:26:59;;;;;;;23.58;16.30;;;;;;;24.35;55.62;94467.19;5085609;28;20051;-79
2023/09/17 10:29:26;;;;;;;23.77;15.35;;;;;;;24.40;55.86;94464.84;5085595;28;20028;-79
2023/09/17 10:31:52;;;;;;;25.83;16.35;;;;;;;24.48;55.26;94473.03;5085588;28;20024;-80
2023/09/17 10:34:18;;;;;;;25.30;15.75;;;;;;;24.52;55.16;94471.88;5067779;28;20024;-80
2023/09/17 10:36:47;;;;;;;21.17;15.30;;;;;;;24.59;54.74;94476.59;5085482;28;20024;-80
2023/09/17 10:39:14;;;;;;;25.75;15.73;;;;;;;24.60;54.61;94476.19;5085321;28;20032;-80
2023/09/17 10:41:41;;;;;;;23.23;15.48;;;;;;;24.70;54.76;94469.19;5085187;28;20029;-80
2023/09/17 10:44:07;;;;;;;22.05;15.52;;;;;;;24.76;54.41;94466.84;5084314;28;20107;-80
2023/09/17 10:46:35;;;;;;;25.95;16.23;;;;;;;24.87;54.52;94459.44;5085560;28;20031;-80
2023/09/17 10:49:01;;;;;;;25.58;17.42;;;;;;;24.88;53.77;94460.25;5085358;28;20066;-80
2023/09/17 10:51:27;;;;;;;26.48;17.38;;;;;;;24.91;53.49;94464.91;5085095;28;20345;-80
2023/09/17 10:53:54;;;;;;;26.10;17.80;;;;;;;24.95;53.72;94466.47;5067192;28;20249;-80
2023/09/17 10:56:20;;;;;;;29.58;17.90;;;;;;;25.04;53.79;94460.63;5085067;28;20326;-80
2023/09/17 10:58:50;;;;;;;24.98;16.92;;;;;;;25.11;53.65;94452.41;5066759;28;20032;-80
2023/09/17 11:01:20;;;;;;;33.22;17.10;;;;;;;25.15;53.15;94457.88;5085199;28;20032;-80
2023/09/17 11:03:51;;;;;;;32.75;16.85;;;;;;;25.06;52.75;94450.09;5085111;28;20078;-80
2023/09/17 11:06:23;;;;;;;23.85;16.55;;;;;;;25.08;53.56;94441.53;5084720;28;20086;-80
2023/09/17 11:08:51;;;;;;;;;;;;;;;25.06;53.69;94431.00;5085399;28;20032;-80
2023/09/17 11:11:18;;;;;;;29.70;17.55;;;;;;;24.99;53.09;94423.63;5084784;28;19913;-80
2023/09/17 11:13:46;;;;;;;25.10;16.58;;;;;;;25.03;53.26;94421.69;5084875;28;20026;-80
2023/09/17 11:16:14;;;;;;;28.05;18.67;;;;;;;25.03;52.78;94429.84;5084796;28;20027;-80